sensor_id;sensor_type;location;lat;lon;timestamp;temperature;humidity
37794;DHT22;23632;48.826;15.176;2023-02-11T00:01:14;0.40;64.90
37794;DHT22;23632;48.826;15.176;2023-02-11T00:04:00;0.50;65.20
37794;DHT22;23632;48.826;15.176;2023-02-11T00:06:31;0.50;65.00
37794;DHT22;23632;48.826;15.176;2023-02-11T00:09:00;0.50;64.90
37794;DHT22;23632;48.826;15.176;2023-02-11T00:11:27;0.50;64.70
37794;DHT22;23632;48.826;15.176;2023-02-11T00:14:01;0.50;64.70
37794;DHT22;23632;48.826;15.176;2023-02-11T00:16:30;0.50;64.80
37794;DHT22;23632;48.826;15.176;2023-02-11T00:18:59;0.40;64.50
37794;DHT22;23632;48.826;15.176;2023-02-11T00:21:27;0.40;64.30
37794;DHT22;23632;48.826;15.176;2023-02-11T00:23:55;0.40;64.40
37794;DHT22;23632;48.826;15.176;2023-02-11T00:26:25;0.30;64.60
37794;DHT22;23632;48.826;15.176;2023-02-11T00:28:53;0.30;65.00
37794;DHT22;23632;48.826;15.176;2023-02-11T00:31:22;0.20;65.10
37794;DHT22;23632;48.826;15.176;2023-02-11T00:33:51;0.20;66.10
37794;DHT22;23632;48.826;15.176;2023-02-11T00:36:21;0.20;66.10
37794;DHT22;23632;48.826;15.176;2023-02-11T00:38:50;0.20;66.30
37794;DHT22;23632;48.826;15.176;2023-02-11T00:41:18;0.20;66.00
37794;DHT22;23632;48.826;15.176;2023-02-11T00:43:46;0.20;66.10
37794;DHT22;23632;48.826;15.176;2023-02-11T00:46:15;0.20;66.20
37794;DHT22;23632;48.826;15.176;2023-02-11T00:48:42;0.20;66.40
37794;DHT22;23632;48.826;15.176;2023-02-11T00:51:10;0.20;66.50
37794;DHT22;23632;48.826;15.176;2023-02-11T00:53:37;0.20;66.40
37794;DHT22;23632;48.826;15.176;2023-02-11T00:56:04;0.20;66.30
37794;DHT22;23632;48.826;15.176;2023-02-11T00:58:32;0.30;66.30
37794;DHT22;23632;48.826;15.176;2023-02-11T01:00:59;0.30;66.10
37794;DHT22;23632;48.826;15.176;2023-02-11T01:03:26;0.40;66.00
37794;DHT22;23632;48.826;15.176;2023-02-11T01:05:54;0.40;66.00
37794;DHT22;23632;48.826;15.176;2023-02-11T01:08:21;0.40;66.00
37794;DHT22;23632;48.826;15.176;2023-02-11T01:11:03;0.40;65.90
37794;DHT22;23632;48.826;15.176;2023-02-11T01:13:34;0.40;66.00
37794;DHT22;23632;48.826;15.176;2023-02-11T01:16:06;0.40;65.90
37794;DHT22;23632;48.826;15.176;2023-02-11T01:18:34;0.40;65.90
37794;DHT22;23632;48.826;15.176;2023-02-11T01:21:02;0.40;65.70
37794;DHT22;23632;48.826;15.176;2023-02-11T01:23:29;0.50;65.80
37794;DHT22;23632;48.826;15.176;2023-02-11T01:25:57;0.50;65.90
37794;DHT22;23632;48.826;15.176;2023-02-11T01:28:28;0.50;65.80
37794;DHT22;23632;48.826;15.176;2023-02-11T01:30:59;0.50;66.00
37794;DHT22;23632;48.826;15.176;2023-02-11T01:33:27;0.50;65.90
37794;DHT22;23632;48.826;15.176;2023-02-11T01:35:54;0.50;66.00
37794;DHT22;23632;48.826;15.176;2023-02-11T01:38:27;0.50;65.80
37794;DHT22;23632;48.826;15.176;2023-02-11T01:41:00;0.60;65.80
37794;DHT22;23632;48.826;15.176;2023-02-11T01:43:32;0.60;65.90
37794;DHT22;23632;48.826;15.176;2023-02-11T01:46:11;0.60;65.60
37794;DHT22;23632;48.826;15.176;2023-02-11T01:48:46;0.60;65.50
37794;DHT22;23632;48.826;15.176;2023-02-11T01:51:24;0.60;65.50
37794;DHT22;23632;48.826;15.176;2023-02-11T01:53:56;0.60;65.50
37794;DHT22;23632;48.826;15.176;2023-02-11T01:56:46;0.60;65.60
37794;DHT22;23632;48.826;15.176;2023-02-11T01:59:44;0.60;65.60
37794;DHT22;23632;48.826;15.176;2023-02-11T02:02:17;0.60;65.50
37794;DHT22;23632;48.826;15.176;2023-02-11T02:04:52;0.60;65.40
37794;DHT22;23632;48.826;15.176;2023-02-11T02:07:38;0.60;65.40
37794;DHT22;23632;48.826;15.176;2023-02-11T02:10:15;0.60;65.70
37794;DHT22;23632;48.826;15.176;2023-02-11T02:12:45;0.60;65.60
37794;DHT22;23632;48.826;15.176;2023-02-11T02:15:32;0.60;65.60
37794;DHT22;23632;48.826;15.176;2023-02-11T02:30:52;0.70;65.20
37794;DHT22;23632;48.826;15.176;2023-02-11T02:33:40;0.60;65.00
37794;DHT22;23632;48.826;15.176;2023-02-11T02:39:05;0.70;65.00
37794;DHT22;23632;48.826;15.176;2023-02-11T02:41:36;0.70;65.00
37794;DHT22;23632;48.826;15.176;2023-02-11T02:44:04;0.70;65.00
37794;DHT22;23632;48.826;15.176;2023-02-11T02:46:34;0.70;64.90
37794;DHT22;23632;48.826;15.176;2023-02-11T02:49:02;0.70;65.00
37794;DHT22;23632;48.826;15.176;2023-02-11T02:51:56;0.70;64.90
37794;DHT22;23632;48.826;15.176;2023-02-11T03:00:17;0.70;64.90
37794;DHT22;23632;48.826;15.176;2023-02-11T03:03:21;0.70;65.00
37794;DHT22;23632;48.826;15.176;2023-02-11T03:06:12;0.80;64.90
37794;DHT22;23632;48.826;15.176;2023-02-11T03:08:54;0.80;64.80
37794;DHT22;23632;48.826;15.176;2023-02-11T03:11:25;0.80;64.80
37794;DHT22;23632;48.826;15.176;2023-02-11T03:13:54;0.80;64.80
37794;DHT22;23632;48.826;15.176;2023-02-11T03:16:25;0.80;64.80
37794;DHT22;23632;48.826;15.176;2023-02-11T03:19:00;0.90;64.80
37794;DHT22;23632;48.826;15.176;2023-02-11T03:21:31;0.90;64.80
37794;DHT22;23632;48.826;15.176;2023-02-11T03:24:06;0.90;64.90
37794;DHT22;23632;48.826;15.176;2023-02-11T03:26:51;1.00;64.90
37794;DHT22;23632;48.826;15.176;2023-02-11T03:32:28;1.10;64.80
37794;DHT22;23632;48.826;15.176;2023-02-11T03:35:10;1.10;64.60
37794;DHT22;23632;48.826;15.176;2023-02-11T03:37:54;1.10;64.70
37794;DHT22;23632;48.826;15.176;2023-02-11T03:40:31;1.20;64.60
37794;DHT22;23632;48.826;15.176;2023-02-11T03:43:27;1.20;64.60
37794;DHT22;23632;48.826;15.176;2023-02-11T03:45:59;1.20;64.40
37794;DHT22;23632;48.826;15.176;2023-02-11T03:48:37;1.30;64.60
37794;DHT22;23632;48.826;15.176;2023-02-11T03:51:08;1.30;64.60
37794;DHT22;23632;48.826;15.176;2023-02-11T03:53:38;1.30;64.50
37794;DHT22;23632;48.826;15.176;2023-02-11T03:56:09;1.30;64.40
37794;DHT22;23632;48.826;15.176;2023-02-11T03:58:39;1.40;64.40
37794;DHT22;23632;48.826;15.176;2023-02-11T04:01:06;1.40;64.30
37794;DHT22;23632;48.826;15.176;2023-02-11T04:03:35;1.40;64.30
37794;DHT22;23632;48.826;15.176;2023-02-11T04:06:02;1.40;64.30
37794;DHT22;23632;48.826;15.176;2023-02-11T04:08:33;1.40;64.30
37794;DHT22;23632;48.826;15.176;2023-02-11T04:11:00;1.40;64.30
37794;DHT22;23632;48.826;15.176;2023-02-11T04:13:27;1.40;64.40
37794;DHT22;23632;48.826;15.176;2023-02-11T04:15:55;1.40;64.40
37794;DHT22;23632;48.826;15.176;2023-02-11T04:18:22;1.40;64.60
37794;DHT22;23632;48.826;15.176;2023-02-11T04:20:49;1.40;64.70
37794;DHT22;23632;48.826;15.176;2023-02-11T04:23:16;1.30;64.70
37794;DHT22;23632;48.826;15.176;2023-02-11T04:25:43;1.40;64.70
37794;DHT22;23632;48.826;15.176;2023-02-11T04:28:10;1.40;64.80
37794;DHT22;23632;48.826;15.176;2023-02-11T04:30:37;1.40;64.80
37794;DHT22;23632;48.826;15.176;2023-02-11T04:33:04;1.40;64.70
37794;DHT22;23632;48.826;15.176;2023-02-11T04:35:31;1.50;64.80
37794;DHT22;23632;48.826;15.176;2023-02-11T04:37:59;1.50;64.80
37794;DHT22;23632;48.826;15.176;2023-02-11T04:40:26;1.50;64.80
37794;DHT22;23632;48.826;15.176;2023-02-11T04:42:53;1.50;64.80
37794;DHT22;23632;48.826;15.176;2023-02-11T04:45:20;1.60;64.80
37794;DHT22;23632;48.826;15.176;2023-02-11T04:47:47;1.60;64.70
37794;DHT22;23632;48.826;15.176;2023-02-11T04:50:14;1.60;64.80
37794;DHT22;23632;48.826;15.176;2023-02-11T04:52:41;1.60;64.80
37794;DHT22;23632;48.826;15.176;2023-02-11T04:55:08;1.60;64.80
37794;DHT22;23632;48.826;15.176;2023-02-11T04:57:35;1.60;65.00
37794;DHT22;23632;48.826;15.176;2023-02-11T05:00:03;1.60;65.10
37794;DHT22;23632;48.826;15.176;2023-02-11T05:02:31;1.60;65.20
37794;DHT22;23632;48.826;15.176;2023-02-11T05:04:58;1.60;65.20
37794;DHT22;23632;48.826;15.176;2023-02-11T05:07:25;1.70;65.30
37794;DHT22;23632;48.826;15.176;2023-02-11T05:09:52;1.70;65.30
37794;DHT22;23632;48.826;15.176;2023-02-11T05:12:19;1.80;65.30
37794;DHT22;23632;48.826;15.176;2023-02-11T05:14:47;1.80;65.20
37794;DHT22;23632;48.826;15.176;2023-02-11T05:17:14;1.80;65.20
37794;DHT22;23632;48.826;15.176;2023-02-11T05:19:41;1.90;65.20
37794;DHT22;23632;48.826;15.176;2023-02-11T05:22:08;1.90;65.30
37794;DHT22;23632;48.826;15.176;2023-02-11T05:24:35;1.90;65.30
37794;DHT22;23632;48.826;15.176;2023-02-11T05:27:02;1.90;65.40
37794;DHT22;23632;48.826;15.176;2023-02-11T05:29:29;1.90;65.30
37794;DHT22;23632;48.826;15.176;2023-02-11T05:31:58;1.90;65.30
37794;DHT22;23632;48.826;15.176;2023-02-11T05:34:25;2.00;65.20
37794;DHT22;23632;48.826;15.176;2023-02-11T05:36:52;2.10;65.30
37794;DHT22;23632;48.826;15.176;2023-02-11T05:39:20;2.10;65.20
37794;DHT22;23632;48.826;15.176;2023-02-11T05:41:47;2.20;66.10
37794;DHT22;23632;48.826;15.176;2023-02-11T05:44:14;2.20;65.20
37794;DHT22;23632;48.826;15.176;2023-02-11T05:46:41;2.30;65.30
37794;DHT22;23632;48.826;15.176;2023-02-11T05:49:08;2.30;65.30
37794;DHT22;23632;48.826;15.176;2023-02-11T05:51:35;2.30;65.10
37794;DHT22;23632;48.826;15.176;2023-02-11T05:54:02;2.40;65.20
37794;DHT22;23632;48.826;15.176;2023-02-11T05:56:29;2.40;65.10
37794;DHT22;23632;48.826;15.176;2023-02-11T05:58:58;2.50;65.10
37794;DHT22;23632;48.826;15.176;2023-02-11T06:01:25;2.50;65.10
37794;DHT22;23632;48.826;15.176;2023-02-11T06:03:53;2.50;65.00
37794;DHT22;23632;48.826;15.176;2023-02-11T06:06:20;2.50;64.80
37794;DHT22;23632;48.826;15.176;2023-02-11T06:08:47;2.60;64.80
37794;DHT22;23632;48.826;15.176;2023-02-11T06:11:15;2.60;64.80
37794;DHT22;23632;48.826;15.176;2023-02-11T06:13:43;2.60;64.80
37794;DHT22;23632;48.826;15.176;2023-02-11T06:16:11;2.70;64.80
37794;DHT22;23632;48.826;15.176;2023-02-11T06:18:38;2.70;64.70
37794;DHT22;23632;48.826;15.176;2023-02-11T06:21:09;2.70;64.70
37794;DHT22;23632;48.826;15.176;2023-02-11T06:23:37;2.70;64.70
37794;DHT22;23632;48.826;15.176;2023-02-11T06:26:06;2.70;64.60
37794;DHT22;23632;48.826;15.176;2023-02-11T06:28:34;2.80;65.50
37794;DHT22;23632;48.826;15.176;2023-02-11T06:31:05;2.80;64.50
37794;DHT22;23632;48.826;15.176;2023-02-11T06:33:34;2.80;64.40
37794;DHT22;23632;48.826;15.176;2023-02-11T06:36:01;2.90;64.40
37794;DHT22;23632;48.826;15.176;2023-02-11T06:38:29;2.90;64.30
37794;DHT22;23632;48.826;15.176;2023-02-11T06:40:57;2.90;64.30
37794;DHT22;23632;48.826;15.176;2023-02-11T06:43:25;2.90;64.30
37794;DHT22;23632;48.826;15.176;2023-02-11T06:45:54;2.90;64.30
37794;DHT22;23632;48.826;15.176;2023-02-11T06:48:22;3.00;64.20
37794;DHT22;23632;48.826;15.176;2023-02-11T06:50:50;3.00;64.10
37794;DHT22;23632;48.826;15.176;2023-02-11T06:53:17;3.00;64.10
37794;DHT22;23632;48.826;15.176;2023-02-11T06:55:45;3.10;64.00
37794;DHT22;23632;48.826;15.176;2023-02-11T06:58:12;3.20;64.10
37794;DHT22;23632;48.826;15.176;2023-02-11T07:00:41;3.20;64.00
37794;DHT22;23632;48.826;15.176;2023-02-11T07:03:08;3.30;63.90
37794;DHT22;23632;48.826;15.176;2023-02-11T07:05:35;3.30;63.90
37794;DHT22;23632;48.826;15.176;2023-02-11T07:08:04;3.30;63.80
37794;DHT22;23632;48.826;15.176;2023-02-11T07:10:33;3.40;63.90
37794;DHT22;23632;48.826;15.176;2023-02-11T07:13:00;3.40;63.80
37794;DHT22;23632;48.826;15.176;2023-02-11T07:15:27;3.50;63.70
37794;DHT22;23632;48.826;15.176;2023-02-11T07:17:55;3.50;63.90
37794;DHT22;23632;48.826;15.176;2023-02-11T07:20:22;3.50;63.20
37794;DHT22;23632;48.826;15.176;2023-02-11T07:22:49;3.60;63.50
37794;DHT22;23632;48.826;15.176;2023-02-11T07:25:17;3.60;63.30
37794;DHT22;23632;48.826;15.176;2023-02-11T07:27:44;3.60;63.20
37794;DHT22;23632;48.826;15.176;2023-02-11T07:30:12;3.70;63.10
37794;DHT22;23632;48.826;15.176;2023-02-11T07:32:39;3.70;63.10
37794;DHT22;23632;48.826;15.176;2023-02-11T07:35:06;3.80;62.80
37794;DHT22;23632;48.826;15.176;2023-02-11T07:37:34;3.90;62.70
37794;DHT22;23632;48.826;15.176;2023-02-11T07:40:01;3.90;62.80
37794;DHT22;23632;48.826;15.176;2023-02-11T07:42:28;4.00;62.70
37794;DHT22;23632;48.826;15.176;2023-02-11T07:44:55;4.10;62.50
37794;DHT22;23632;48.826;15.176;2023-02-11T07:47:22;4.20;62.50
37794;DHT22;23632;48.826;15.176;2023-02-11T07:49:49;4.20;62.50
37794;DHT22;23632;48.826;15.176;2023-02-11T07:52:17;4.30;62.20
37794;DHT22;23632;48.826;15.176;2023-02-11T07:54:44;4.30;62.40
37794;DHT22;23632;48.826;15.176;2023-02-11T07:57:11;4.50;62.10
37794;DHT22;23632;48.826;15.176;2023-02-11T07:59:38;4.50;61.70
37794;DHT22;23632;48.826;15.176;2023-02-11T08:02:05;4.60;61.90
37794;DHT22;23632;48.826;15.176;2023-02-11T08:04:32;4.70;61.80
37794;DHT22;23632;48.826;15.176;2023-02-11T08:06:59;4.70;61.70
37794;DHT22;23632;48.826;15.176;2023-02-11T08:09:26;4.80;61.70
37794;DHT22;23632;48.826;15.176;2023-02-11T08:11:53;4.90;61.70
37794;DHT22;23632;48.826;15.176;2023-02-11T08:14:22;5.00;61.40
37794;DHT22;23632;48.826;15.176;2023-02-11T08:16:50;5.10;61.40
37794;DHT22;23632;48.826;15.176;2023-02-11T08:19:17;5.30;61.30
37794;DHT22;23632;48.826;15.176;2023-02-11T08:21:44;5.40;60.80
37794;DHT22;23632;48.826;15.176;2023-02-11T08:24:12;5.40;60.80
37794;DHT22;23632;48.826;15.176;2023-02-11T08:26:40;5.50;60.60
37794;DHT22;23632;48.826;15.176;2023-02-11T08:29:11;5.50;60.60
37794;DHT22;23632;48.826;15.176;2023-02-11T08:31:41;5.60;60.50
37794;DHT22;23632;48.826;15.176;2023-02-11T08:34:10;5.70;60.60
37794;DHT22;23632;48.826;15.176;2023-02-11T08:36:41;5.80;60.10
37794;DHT22;23632;48.826;15.176;2023-02-11T08:39:21;5.90;60.10
37794;DHT22;23632;48.826;15.176;2023-02-11T08:41:51;5.90;59.80
37794;DHT22;23632;48.826;15.176;2023-02-11T08:44:20;6.00;60.00
37794;DHT22;23632;48.826;15.176;2023-02-11T08:46:47;6.00;60.20
37794;DHT22;23632;48.826;15.176;2023-02-11T08:49:15;6.10;59.80
37794;DHT22;23632;48.826;15.176;2023-02-11T08:51:43;6.20;59.50
37794;DHT22;23632;48.826;15.176;2023-02-11T08:54:11;6.30;59.80
37794;DHT22;23632;48.826;15.176;2023-02-11T08:56:38;6.40;59.50
37794;DHT22;23632;48.826;15.176;2023-02-11T08:59:07;6.50;59.00
37794;DHT22;23632;48.826;15.176;2023-02-11T09:01:35;6.60;59.00
37794;DHT22;23632;48.826;15.176;2023-02-11T09:04:02;6.70;58.80
37794;DHT22;23632;48.826;15.176;2023-02-11T09:06:29;6.70;58.80
37794;DHT22;23632;48.826;15.176;2023-02-11T09:08:57;6.80;58.90
37794;DHT22;23632;48.826;15.176;2023-02-11T09:11:29;6.90;58.60
37794;DHT22;23632;48.826;15.176;2023-02-11T09:13:59;7.00;58.70
37794;DHT22;23632;48.826;15.176;2023-02-11T09:16:29;7.10;58.30
37794;DHT22;23632;48.826;15.176;2023-02-11T09:19:00;7.20;58.70
37794;DHT22;23632;48.826;15.176;2023-02-11T09:21:28;7.20;58.10
37794;DHT22;23632;48.826;15.176;2023-02-11T09:23:55;7.30;57.70
37794;DHT22;23632;48.826;15.176;2023-02-11T09:26:26;7.40;57.90
37794;DHT22;23632;48.826;15.176;2023-02-11T09:28:54;7.50;57.40
37794;DHT22;23632;48.826;15.176;2023-02-11T09:31:23;7.40;57.40
37794;DHT22;23632;48.826;15.176;2023-02-11T09:33:55;7.50;57.70
37794;DHT22;23632;48.826;15.176;2023-02-11T09:36:25;7.50;57.60
37794;DHT22;23632;48.826;15.176;2023-02-11T09:38:57;7.60;57.70
37794;DHT22;23632;48.826;15.176;2023-02-11T09:44:04;7.60;57.50
37794;DHT22;23632;48.826;15.176;2023-02-11T09:46:40;7.60;57.50
37794;DHT22;23632;48.826;15.176;2023-02-11T09:49:16;7.60;57.40
37794;DHT22;23632;48.826;15.176;2023-02-11T09:51:56;7.70;58.10
37794;DHT22;23632;48.826;15.176;2023-02-11T09:54:39;7.70;57.40
37794;DHT22;23632;48.826;15.176;2023-02-11T09:57:18;7.80;57.20
37794;DHT22;23632;48.826;15.176;2023-02-11T09:59:55;7.80;57.70
37794;DHT22;23632;48.826;15.176;2023-02-11T10:06:46;8.00;57.60
37794;DHT22;23632;48.826;15.176;2023-02-11T10:09:24;8.10;57.10
37794;DHT22;23632;48.826;15.176;2023-02-11T10:15:02;8.30;56.60
37794;DHT22;23632;48.826;15.176;2023-02-11T10:20:35;8.30;56.70
37794;DHT22;23632;48.826;15.176;2023-02-11T10:23:16;8.40;56.80
37794;DHT22;23632;48.826;15.176;2023-02-11T10:25:50;8.40;56.70
37794;DHT22;23632;48.826;15.176;2023-02-11T10:28:22;8.50;56.90
37794;DHT22;23632;48.826;15.176;2023-02-11T10:31:01;8.60;56.70
37794;DHT22;23632;48.826;15.176;2023-02-11T10:36:17;8.70;56.30
37794;DHT22;23632;48.826;15.176;2023-02-11T10:38:44;8.80;56.40
37794;DHT22;23632;48.826;15.176;2023-02-11T10:41:26;8.90;56.10
37794;DHT22;23632;48.826;15.176;2023-02-11T10:44:01;8.80;56.30
37794;DHT22;23632;48.826;15.176;2023-02-11T10:46:31;8.90;56.20
37794;DHT22;23632;48.826;15.176;2023-02-11T10:48:59;8.90;56.10
37794;DHT22;23632;48.826;15.176;2023-02-11T10:51:28;8.90;56.20
37794;DHT22;23632;48.826;15.176;2023-02-11T10:56:34;9.00;56.50
37794;DHT22;23632;48.826;15.176;2023-02-11T10:59:24;9.10;56.60
37794;DHT22;23632;48.826;15.176;2023-02-11T11:01:59;9.20;56.00
37794;DHT22;23632;48.826;15.176;2023-02-11T11:04:47;9.30;55.80
37794;DHT22;23632;48.826;15.176;2023-02-11T11:07:27;9.40;55.70
37794;DHT22;23632;48.826;15.176;2023-02-11T11:10:05;9.30;56.20
37794;DHT22;23632;48.826;15.176;2023-02-11T11:12:47;9.40;55.60
37794;DHT22;23632;48.826;15.176;2023-02-11T11:15:18;9.40;56.10
37794;DHT22;23632;48.826;15.176;2023-02-11T11:17:49;9.50;56.20
37794;DHT22;23632;48.826;15.176;2023-02-11T11:22:53;9.70;56.20
37794;DHT22;23632;48.826;15.176;2023-02-11T11:25:36;9.80;55.70
37794;DHT22;23632;48.826;15.176;2023-02-11T11:28:05;9.90;55.80
37794;DHT22;23632;48.826;15.176;2023-02-11T11:30:46;10.00;54.10
37794;DHT22;23632;48.826;15.176;2023-02-11T11:33:24;10.20;54.30
37794;DHT22;23632;48.826;15.176;2023-02-11T11:36:10;10.30;54.40
37794;DHT22;23632;48.826;15.176;2023-02-11T11:38:51;10.30;54.40
37794;DHT22;23632;48.826;15.176;2023-02-11T11:43:55;10.40;54.30
37794;DHT22;23632;48.826;15.176;2023-02-11T11:46:38;10.40;53.70
37794;DHT22;23632;48.826;15.176;2023-02-11T11:49:30;10.40;53.60
37794;DHT22;23632;48.826;15.176;2023-02-11T11:54:58;10.40;54.50
37794;DHT22;23632;48.826;15.176;2023-02-11T11:57:30;10.40;54.30
37794;DHT22;23632;48.826;15.176;2023-02-11T11:59:59;10.50;54.00
37794;DHT22;23632;48.826;15.176;2023-02-11T12:05:42;10.70;54.00
37794;DHT22;23632;48.826;15.176;2023-02-11T12:08:25;10.80;53.40
37794;DHT22;23632;48.826;15.176;2023-02-11T12:17:16;11.00;53.10
37794;DHT22;23632;48.826;15.176;2023-02-11T12:28:33;10.90;53.10
37794;DHT22;23632;48.826;15.176;2023-02-11T12:34:41;10.90;53.20
37794;DHT22;23632;48.826;15.176;2023-02-11T12:47:36;10.70;54.80
37794;DHT22;23632;48.826;15.176;2023-02-11T12:58:59;10.30;55.10
37794;DHT22;23632;48.826;15.176;2023-02-11T13:01:37;10.20;55.40
37794;DHT22;23632;48.826;15.176;2023-02-11T13:04:32;10.10;55.50
37794;DHT22;23632;48.826;15.176;2023-02-11T13:07:07;10.00;55.40
37794;DHT22;23632;48.826;15.176;2023-02-11T13:09:48;10.00;55.30
37794;DHT22;23632;48.826;15.176;2023-02-11T13:12:18;10.00;55.70
37794;DHT22;23632;48.826;15.176;2023-02-11T13:15:09;10.00;55.80
37794;DHT22;23632;48.826;15.176;2023-02-11T13:21:02;9.90;57.90
37794;DHT22;23632;48.826;15.176;2023-02-11T13:24:27;9.80;58.20
37794;DHT22;23632;48.826;15.176;2023-02-11T13:38:03;9.60;59.10
37794;DHT22;23632;48.826;15.176;2023-02-11T13:40:37;9.50;59.40
37794;DHT22;23632;48.826;15.176;2023-02-11T13:43:10;9.50;59.50
37794;DHT22;23632;48.826;15.176;2023-02-11T13:45:47;9.40;59.80
37794;DHT22;23632;48.826;15.176;2023-02-11T13:51:04;9.20;59.80
37794;DHT22;23632;48.826;15.176;2023-02-11T13:53:55;9.10;60.00
37794;DHT22;23632;48.826;15.176;2023-02-11T13:56:37;9.00;59.90
37794;DHT22;23632;48.826;15.176;2023-02-11T14:02:19;8.90;60.20
37794;DHT22;23632;48.826;15.176;2023-02-11T14:13:26;8.60;61.00
37794;DHT22;23632;48.826;15.176;2023-02-11T14:16:10;8.60;61.00
37794;DHT22;23632;48.826;15.176;2023-02-11T14:21:29;8.40;61.30
37794;DHT22;23632;48.826;15.176;2023-02-11T14:26:31;8.30;61.60
37794;DHT22;23632;48.826;15.176;2023-02-11T14:29:24;8.30;61.80
37794;DHT22;23632;48.826;15.176;2023-02-11T14:37:42;8.10;62.20
37794;DHT22;23632;48.826;15.176;2023-02-11T14:43:09;8.00;62.80
37794;DHT22;23632;48.826;15.176;2023-02-11T14:45:39;7.90;63.20
37794;DHT22;23632;48.826;15.176;2023-02-11T14:48:15;7.90;63.40
37794;DHT22;23632;48.826;15.176;2023-02-11T14:51:15;7.80;63.40
37794;DHT22;23632;48.826;15.176;2023-02-11T14:53:56;7.80;63.40
37794;DHT22;23632;48.826;15.176;2023-02-11T14:56:29;7.80;63.80
37794;DHT22;23632;48.826;15.176;2023-02-11T14:59:00;7.80;63.90
37794;DHT22;23632;48.826;15.176;2023-02-11T15:01:31;7.80;63.90
37794;DHT22;23632;48.826;15.176;2023-02-11T15:04:01;7.80;64.00
37794;DHT22;23632;48.826;15.176;2023-02-11T15:06:36;7.80;64.10
37794;DHT22;23632;48.826;15.176;2023-02-11T15:11:48;7.70;64.30
37794;DHT22;23632;48.826;15.176;2023-02-11T15:14:26;7.60;64.50
37794;DHT22;23632;48.826;15.176;2023-02-11T15:16:57;7.60;64.80
37794;DHT22;23632;48.826;15.176;2023-02-11T15:19:31;7.60;64.80
37794;DHT22;23632;48.826;15.176;2023-02-11T15:25:12;7.50;65.10
37794;DHT22;23632;48.826;15.176;2023-02-11T15:27:45;7.40;65.20
37794;DHT22;23632;48.826;15.176;2023-02-11T15:33:01;7.30;65.70
37794;DHT22;23632;48.826;15.176;2023-02-11T15:35:35;7.30;65.70
37794;DHT22;23632;48.826;15.176;2023-02-11T15:38:04;7.30;66.10
37794;DHT22;23632;48.826;15.176;2023-02-11T15:40:33;7.30;66.20
37794;DHT22;23632;48.826;15.176;2023-02-11T15:43:04;7.20;66.20
37794;DHT22;23632;48.826;15.176;2023-02-11T15:45:36;7.20;66.50
37794;DHT22;23632;48.826;15.176;2023-02-11T15:50:58;7.10;66.50
37794;DHT22;23632;48.826;15.176;2023-02-11T15:56:20;7.00;66.50
37794;DHT22;23632;48.826;15.176;2023-02-11T15:58:54;7.00;66.20
37794;DHT22;23632;48.826;15.176;2023-02-11T16:01:33;7.00;66.50
37794;DHT22;23632;48.826;15.176;2023-02-11T16:04:03;7.00;66.40
37794;DHT22;23632;48.826;15.176;2023-02-11T16:06:39;7.00;67.20
37794;DHT22;23632;48.826;15.176;2023-02-11T16:17:04;6.80;66.30
37794;DHT22;23632;48.826;15.176;2023-02-11T16:19:33;6.80;66.60
37794;DHT22;23632;48.826;15.176;2023-02-11T16:22:06;6.70;66.60
37794;DHT22;23632;48.826;15.176;2023-02-11T16:24:36;6.70;66.50
37794;DHT22;23632;48.826;15.176;2023-02-11T16:27:17;6.80;66.60
37794;DHT22;23632;48.826;15.176;2023-02-11T16:29:51;6.80;66.50
37794;DHT22;23632;48.826;15.176;2023-02-11T16:32:20;6.80;66.50
37794;DHT22;23632;48.826;15.176;2023-02-11T16:34:49;6.90;66.40
37794;DHT22;23632;48.826;15.176;2023-02-11T16:37:16;6.90;66.30
37794;DHT22;23632;48.826;15.176;2023-02-11T16:39:43;7.00;66.40
37794;DHT22;23632;48.826;15.176;2023-02-11T16:42:11;7.00;66.30
37794;DHT22;23632;48.826;15.176;2023-02-11T16:44:38;7.00;66.40
37794;DHT22;23632;48.826;15.176;2023-02-11T16:47:09;7.00;66.30
37794;DHT22;23632;48.826;15.176;2023-02-11T16:49:44;7.10;66.40
37794;DHT22;23632;48.826;15.176;2023-02-11T16:52:15;7.10;66.30
37794;DHT22;23632;48.826;15.176;2023-02-11T16:54:42;7.10;66.30
37794;DHT22;23632;48.826;15.176;2023-02-11T16:57:21;7.10;66.40
37794;DHT22;23632;48.826;15.176;2023-02-11T16:59:50;7.10;66.50
37794;DHT22;23632;48.826;15.176;2023-02-11T17:05:02;7.00;66.80
37794;DHT22;23632;48.826;15.176;2023-02-11T17:07:32;7.00;66.70
37794;DHT22;23632;48.826;15.176;2023-02-11T17:09:59;7.10;66.80
37794;DHT22;23632;48.826;15.176;2023-02-11T17:12:26;7.10;67.10
37794;DHT22;23632;48.826;15.176;2023-02-11T17:14:53;7.20;67.20
37794;DHT22;23632;48.826;15.176;2023-02-11T17:17:20;7.20;67.40
37794;DHT22;23632;48.826;15.176;2023-02-11T17:19:50;7.20;67.30
37794;DHT22;23632;48.826;15.176;2023-02-11T17:22:17;7.20;67.40
37794;DHT22;23632;48.826;15.176;2023-02-11T17:24:44;7.20;67.50
37794;DHT22;23632;48.826;15.176;2023-02-11T17:27:12;7.30;67.60
37794;DHT22;23632;48.826;15.176;2023-02-11T17:29:39;7.20;67.70
37794;DHT22;23632;48.826;15.176;2023-02-11T17:32:06;7.20;67.80
37794;DHT22;23632;48.826;15.176;2023-02-11T17:34:33;7.20;68.00
37794;DHT22;23632;48.826;15.176;2023-02-11T17:37:00;7.20;68.20
37794;DHT22;23632;48.826;15.176;2023-02-11T17:39:38;7.10;68.30
37794;DHT22;23632;48.826;15.176;2023-02-11T17:42:06;7.10;68.80
37794;DHT22;23632;48.826;15.176;2023-02-11T17:44:34;7.10;68.90
37794;DHT22;23632;48.826;15.176;2023-02-11T17:47:01;7.10;69.30
37794;DHT22;23632;48.826;15.176;2023-02-11T17:49:28;7.00;70.50
37794;DHT22;23632;48.826;15.176;2023-02-11T17:51:55;7.00;70.00
37794;DHT22;23632;48.826;15.176;2023-02-11T17:54:22;7.00;70.00
37794;DHT22;23632;48.826;15.176;2023-02-11T17:56:50;7.00;70.60
37794;DHT22;23632;48.826;15.176;2023-02-11T17:59:22;7.00;71.00
37794;DHT22;23632;48.826;15.176;2023-02-11T18:01:51;6.90;71.10
37794;DHT22;23632;48.826;15.176;2023-02-11T18:04:18;6.90;71.30
37794;DHT22;23632;48.826;15.176;2023-02-11T18:06:46;6.90;71.60
37794;DHT22;23632;48.826;15.176;2023-02-11T18:09:13;6.90;71.90
37794;DHT22;23632;48.826;15.176;2023-02-11T18:11:40;6.90;72.40
37794;DHT22;23632;48.826;15.176;2023-02-11T18:14:09;6.80;72.50
37794;DHT22;23632;48.826;15.176;2023-02-11T18:16:36;6.80;72.80
37794;DHT22;23632;48.826;15.176;2023-02-11T18:19:05;6.80;73.00
37794;DHT22;23632;48.826;15.176;2023-02-11T18:21:33;6.80;73.40
37794;DHT22;23632;48.826;15.176;2023-02-11T18:24:00;6.80;73.60
37794;DHT22;23632;48.826;15.176;2023-02-11T18:26:32;6.70;74.00
37794;DHT22;23632;48.826;15.176;2023-02-11T18:29:00;6.70;74.50
37794;DHT22;23632;48.826;15.176;2023-02-11T18:31:29;6.60;74.90
37794;DHT22;23632;48.826;15.176;2023-02-11T18:33:56;6.50;75.10
37794;DHT22;23632;48.826;15.176;2023-02-11T18:36:23;6.50;75.10